createdAt,value
2022-08-04T00:02:49.610Z,24.4
2022-08-04T00:08:24.343Z,24.3
2022-08-04T00:14:03.449Z,24.3
2022-08-04T00:19:40.033Z,24.3
2022-08-04T00:25:15.137Z,24.3
2022-08-04T00:30:51.543Z,24.3
2022-08-04T00:36:31.154Z,24.3
2022-08-04T00:42:07.051Z,24.3
2022-08-04T00:47:41.898Z,24.3
2022-08-04T00:53:17.590Z,24.2
2022-08-04T00:58:52.622Z,24.2
2022-08-04T01:04:27.611Z,24.2
2022-08-04T01:10:02.512Z,24.2
2022-08-04T01:15:56.562Z,24.2
2022-08-04T01:21:37.148Z,24.1
2022-08-04T01:27:11.883Z,24.1
2022-08-04T01:32:49.092Z,24.1
2022-08-04T01:38:24.134Z,24.1
2022-08-04T01:44:00.331Z,24.1
2022-08-04T01:49:39.986Z,24.1
2022-08-04T01:55:16.024Z,24.1
2022-08-04T02:00:55.997Z,24
2022-08-04T02:06:32.650Z,24
2022-08-04T02:12:15.999Z,24
2022-08-04T02:18:13.173Z,24
2022-08-04T02:23:45.998Z,24
2022-08-04T02:29:20.737Z,24
2022-08-04T02:34:55.529Z,24
2022-08-04T02:40:30.400Z,23.9
2022-08-04T02:46:05.237Z,23.9
2022-08-04T02:51:53.125Z,23.9
2022-08-04T02:57:28.159Z,23.9
2022-08-04T03:03:03.574Z,23.9
2022-08-04T03:08:42.054Z,23.9
2022-08-04T03:14:17.021Z,23.9
2022-08-04T03:19:51.870Z,23.9
2022-08-04T03:25:26.655Z,23.8
2022-08-04T03:31:05.026Z,23.8
2022-08-04T03:36:39.812Z,23.8
2022-08-04T03:42:16.091Z,23.8
2022-08-04T03:47:51.363Z,23.8
2022-08-04T03:53:26.189Z,23.8
2022-08-04T03:59:02.229Z,23.7
2022-08-04T04:04:37.426Z,23.7
2022-08-04T04:10:19.085Z,23.7
2022-08-04T04:16:03.802Z,23.7
2022-08-04T04:21:40.042Z,23.7
2022-08-04T04:27:15.855Z,23.7
2022-08-04T04:32:50.761Z,23.7
2022-08-04T04:38:25.624Z,23.6
2022-08-04T04:44:00.791Z,23.6
2022-08-04T04:49:36.842Z,23.6
2022-08-04T04:55:11.990Z,23.6
2022-08-04T05:00:46.805Z,23.6
2022-08-04T05:06:21.856Z,23.6
2022-08-04T05:11:56.600Z,23.6
2022-08-04T05:17:55.247Z,23.6
2022-08-04T05:23:28.008Z,23.6
2022-08-04T05:29:03.170Z,23.6
2022-08-04T05:34:37.973Z,23.5
2022-08-04T05:40:12.928Z,23.5
2022-08-04T05:45:48.957Z,23.5
2022-08-04T05:51:23.817Z,23.5
2022-08-04T05:56:58.697Z,23.5
2022-08-04T06:02:33.515Z,23.6
2022-08-04T06:08:12.857Z,23.6
2022-08-04T06:13:50.986Z,23.6
2022-08-04T06:19:58.366Z,23.6
2022-08-04T06:26:05.120Z,23.6
2022-08-04T06:32:29.270Z,23.6
2022-08-04T06:38:16.844Z,23.7
2022-08-04T06:43:56.279Z,24
2022-08-04T06:49:31.204Z,23.9
2022-08-04T06:57:24.714Z,24
2022-08-04T07:02:59.446Z,24.1
2022-08-04T07:08:34.391Z,24.3
2022-08-04T07:14:10.166Z,24.5
2022-08-04T07:19:45.240Z,24.6
2022-08-04T07:25:22.084Z,24.6
2022-08-04T07:31:48.412Z,24.7
2022-08-04T07:37:23.576Z,24.9
2022-08-04T07:43:17.470Z,25.1
2022-08-04T07:49:01.454Z,24.7
2022-08-04T07:54:36.336Z,24.9
2022-08-04T08:00:12.373Z,25.5
2022-08-04T08:05:54.923Z,25.9
2022-08-04T08:12:34.305Z,25.9
2022-08-04T08:18:50.129Z,26
2022-08-04T08:24:23.089Z,26
2022-08-04T08:29:58.146Z,26.1
2022-08-04T08:35:33.280Z,26.2
2022-08-04T08:41:29.898Z,26.5
2022-08-04T08:47:04.768Z,26.8
2022-08-04T08:52:56.513Z,26.8
2022-08-04T08:58:39.545Z,26.9
2022-08-04T09:04:22.894Z,27.1
2022-08-04T09:10:07.662Z,27.4
2022-08-04T09:15:42.575Z,27.6
2022-08-04T09:21:18.293Z,27.5
2022-08-04T09:26:59.846Z,27.3
2022-08-04T09:32:35.566Z,27.5
2022-08-04T09:38:10.429Z,28
2022-08-04T09:43:57.270Z,28.4
2022-08-04T09:50:50.572Z,28.8
2022-08-04T09:56:25.771Z,28.9
2022-08-04T10:02:00.737Z,29
2022-08-04T10:07:35.592Z,29.2
2022-08-04T10:13:10.722Z,29.9
2022-08-04T10:19:08.354Z,30.5
2022-08-04T10:24:42.505Z,30.4
2022-08-04T10:30:17.416Z,29.9
2022-08-04T10:35:52.038Z,29.6
2022-08-04T10:41:27.856Z,29.3
2022-08-04T10:47:03.138Z,28.1
2022-08-04T10:52:38.544Z,27.8
2022-08-04T10:58:14.438Z,27.6
2022-08-04T11:03:49.507Z,27.6
2022-08-04T11:09:24.417Z,27.7
2022-08-04T11:15:00.401Z,27.7
2022-08-04T11:20:36.602Z,27.7
2022-08-04T11:26:12.665Z,27.6
2022-08-04T11:31:51.589Z,27.6
2022-08-04T11:37:27.411Z,27.5
2022-08-04T11:43:02.514Z,27.5
2022-08-04T11:48:37.267Z,27.5
2022-08-04T11:54:12.156Z,27.5
2022-08-04T11:59:46.977Z,27.5
2022-08-04T12:05:32.303Z,27.6
2022-08-04T12:11:12.888Z,27.8
2022-08-04T12:17:09.805Z,27.8
2022-08-04T12:22:42.559Z,27.8
2022-08-04T12:28:18.798Z,27.7
2022-08-04T12:34:03.171Z,27.8
2022-08-04T12:40:28.008Z,28
2022-08-04T12:46:08.408Z,28.2
2022-08-04T12:52:05.985Z,28.5
2022-08-04T12:57:46.699Z,28.7
2022-08-04T13:03:21.509Z,28.6
2022-08-04T13:08:56.352Z,28.6
2022-08-04T13:14:31.307Z,28.6
2022-08-04T13:20:06.169Z,28.5
2022-08-04T13:26:41.882Z,28.6
2022-08-04T13:32:38.015Z,28.8
2022-08-04T13:38:15.304Z,29
2022-08-04T13:44:17.123Z,28.8
2022-08-04T13:50:09.988Z,28.7
2022-08-04T13:55:48.239Z,28.8
2022-08-04T14:01:35.443Z,29
2022-08-04T14:07:16.323Z,29.5
2022-08-04T14:12:57.760Z,29.8
2022-08-04T14:18:32.712Z,29.8
2022-08-04T14:24:07.833Z,29.4
2022-08-04T14:29:42.611Z,29.2
2022-08-04T14:35:18.713Z,29
2022-08-04T14:41:27.578Z,28.9
2022-08-04T14:47:02.483Z,28.9
2022-08-04T14:52:37.104Z,29
2022-08-04T14:58:33.574Z,29
2022-08-04T15:04:34.681Z,29.7
2022-08-04T15:10:10.489Z,30.3
2022-08-04T15:16:02.254Z,30.7
2022-08-04T15:21:43.838Z,31.1
2022-08-04T15:27:19.734Z,31.4
2022-08-04T15:32:54.756Z,31.6
2022-08-04T15:38:31.090Z,31.7
2022-08-04T15:44:09.654Z,31.7
2022-08-04T15:49:45.587Z,31.5
2022-08-04T15:55:20.312Z,31
2022-08-04T16:00:56.327Z,30.8
2022-08-04T16:06:31.339Z,31.3
2022-08-04T16:12:08.358Z,31.6
2022-08-04T16:18:52.243Z,32
2022-08-04T16:24:25.015Z,32.2
2022-08-04T16:29:59.858Z,32.3
2022-08-04T16:35:38.054Z,32.4
2022-08-04T16:41:18.722Z,32.5
2022-08-04T16:47:01.217Z,32.5
2022-08-04T16:52:58.114Z,32.6
2022-08-04T16:58:36.632Z,32.3
2022-08-04T17:04:29.282Z,31.8
2022-08-04T17:10:04.019Z,31.6
2022-08-04T17:15:39.257Z,31.2
2022-08-04T17:21:14.043Z,31
2022-08-04T17:26:52.183Z,30.7
2022-08-04T17:32:30.311Z,30.5
2022-08-04T17:38:05.153Z,30.3
2022-08-04T17:44:01.688Z,30.1
2022-08-04T17:49:44.649Z,30
2022-08-04T17:55:28.689Z,29.8
2022-08-04T18:01:23.437Z,29.7
2022-08-04T18:07:01.307Z,29.5
2022-08-04T18:12:36.867Z,29.4
2022-08-04T18:18:39.649Z,29.2
2022-08-04T18:24:28.631Z,29.1
2022-08-04T18:30:53.470Z,28.9
2022-08-04T18:36:32.309Z,28.7
2022-08-04T18:42:37.377Z,28.5
2022-08-04T18:48:17.358Z,28.4
2022-08-04T18:53:54.856Z,28.2
2022-08-04T18:59:34.173Z,28.1
2022-08-04T19:05:09.679Z,27.9
2022-08-04T19:10:59.710Z,26.9
2022-08-04T22:30:52.260Z,24.1
2022-08-04T22:36:29.207Z,24.1
2022-08-04T22:42:13.203Z,24.1
2022-08-04T22:47:52.456Z,24.1
2022-08-04T22:53:28.432Z,24.1
2022-08-04T22:59:06.706Z,24.1
2022-08-04T23:04:51.167Z,24.1
2022-08-04T23:10:29.375Z,24
2022-08-04T23:16:09.769Z,24
2022-08-04T23:21:47.512Z,24
2022-08-04T23:27:39.015Z,24
2022-08-04T23:33:48.997Z,24
2022-08-04T23:39:42.479Z,23.9
2022-08-04T23:46:27.693Z,23.9
2022-08-04T23:52:02.913Z,23.9
2022-08-04T23:58:05.392Z,23.9
